BON63L FACT-FHSH
Flight info
| Callsign | BON63L |
|---|---|
| Flight time | N/A |
| Altitude | 34000 |
| Route | IMSOM1A IMSOM Q34 UVIKU DCT BUXIR DCT 28S010E 26S008E/N0462F360 18S002W DCT CB207 |
| Aircraft | A320/M-SDE3FGHIRWY/LB1 |
Departure
| Time | 2026-05-05 13:51 |
|---|---|
| Airport | Cape Town International Airport (FACT) |
Arrival
| Time | N/A |
|---|---|
| Airport | Saint Helena International Airport (FHSH) |
| Time | Latitude | Longitude | Altitude | Speed | Heading |
|---|---|---|---|---|---|
| 2026-05-05 13:49 | -33.96004 | 18.60023 | 153 ft | 0 kts | 141° |
| 2026-05-05 13:49 | -33.96006 | 18.60023 | 153 ft | 1 kts | 159° |
| 2026-05-05 13:50 | -33.96023 | 18.60022 | 153 ft | 4 kts | 182° |
| 2026-05-05 13:50 | -33.96129 | 18.60051 | 154 ft | 41 kts | 165° |
| 2026-05-05 13:50 | -33.96639 | 18.60212 | 157 ft | 106 kts | 165° |
| 2026-05-05 13:50 | -33.97531 | 18.60492 | 153 ft | 156 kts | 165° |
| 2026-05-05 13:51 | -33.98671 | 18.60847 | 468 ft | 174 kts | 165° |
| 2026-05-05 13:51 | -33.99849 | 18.61256 | 1100 ft | 178 kts | 164° |
| 2026-05-05 13:51 | -34.01039 | 18.61705 | 1756 ft | 181 kts | 162° |
| 2026-05-05 13:51 | -34.02240 | 18.62199 | 2246 ft | 186 kts | 162° |
| 2026-05-05 13:52 | -34.03514 | 18.62594 | 2633 ft | 193 kts | 180° |
| 2026-05-05 13:52 | -34.04839 | 18.62273 | 3004 ft | 201 kts | 206° |
| 2026-05-05 13:52 | -34.06081 | 18.61355 | 3271 ft | 218 kts | 215° |
| 2026-05-05 13:52 | -34.07386 | 18.60283 | 3539 ft | 238 kts | 214° |
| 2026-05-05 13:53 | -34.08827 | 18.59113 | 3869 ft | 259 kts | 214° |
| 2026-05-05 13:53 | -34.10350 | 18.57875 | 4440 ft | 270 kts | 217° |
| 2026-05-05 13:53 | -34.11582 | 18.56175 | 5177 ft | 272 kts | 243° |
| 2026-05-05 13:53 | -34.12052 | 18.54001 | 5867 ft | 276 kts | 270° |
| 2026-05-05 13:54 | -34.11707 | 18.51713 | 6545 ft | 281 kts | 291° |
| 2026-05-05 13:54 | -34.10878 | 18.49571 | 7309 ft | 282 kts | 295° |
| 2026-05-05 13:54 | -34.10061 | 18.47418 | 8100 ft | 281 kts | 294° |
| 2026-05-05 13:54 | -34.09284 | 18.45230 | 8759 ft | 287 kts | 292° |
| 2026-05-05 13:55 | -34.08507 | 18.42996 | 9412 ft | 290 kts | 292° |
| 2026-05-05 13:55 | -34.07718 | 18.40747 | 10067 ft | 293 kts | 292° |
| 2026-05-05 13:55 | -34.06892 | 18.38414 | 10301 ft | 313 kts | 293° |
| 2026-05-05 13:55 | -34.06004 | 18.35918 | 10438 ft | 334 kts | 293° |
| 2026-05-05 13:56 | -34.05057 | 18.33263 | 10641 ft | 351 kts | 293° |
| 2026-05-05 13:56 | -34.04094 | 18.30568 | 11138 ft | 357 kts | 293° |
| 2026-05-05 13:56 | -34.03105 | 18.27807 | 11689 ft | 361 kts | 293° |
| 2026-05-05 13:56 | -34.02102 | 18.25009 | 12232 ft | 365 kts | 293° |
| 2026-05-05 13:57 | -34.01092 | 18.22189 | 12785 ft | 368 kts | 292° |
| 2026-05-05 13:57 | -34.00075 | 18.19344 | 13336 ft | 371 kts | 292° |
| 2026-05-05 13:57 | -33.99048 | 18.16467 | 13882 ft | 375 kts | 292° |
| 2026-05-05 13:57 | -33.98011 | 18.13570 | 14421 ft | 377 kts | 292° |
| 2026-05-05 13:58 | -33.96965 | 18.10654 | 14930 ft | 381 kts | 292° |
| 2026-05-05 13:58 | -33.95921 | 18.07753 | 15423 ft | 384 kts | 292° |
| 2026-05-05 13:58 | -33.94853 | 18.04795 | 15902 ft | 387 kts | 293° |
| 2026-05-05 13:58 | -33.93519 | 18.01967 | 16386 ft | 391 kts | 304° |
| 2026-05-05 13:59 | -33.89623 | 17.97343 | 17344 ft | 398 kts | 322° |
| 2026-05-05 13:59 | -33.87414 | 17.95323 | 17814 ft | 401 kts | 322° |
| 2026-05-05 14:00 | -33.82940 | 17.91215 | 18763 ft | 408 kts | 322° |
| 2026-05-05 14:00 | -33.80672 | 17.89127 | 19218 ft | 412 kts | 322° |
| 2026-05-05 14:00 | -33.78386 | 17.87021 | 19667 ft | 416 kts | 322° |
| 2026-05-05 14:00 | -33.76080 | 17.84898 | 20115 ft | 419 kts | 322° |
| 2026-05-05 14:01 | -33.73747 | 17.82758 | 20562 ft | 423 kts | 322° |
| 2026-05-05 14:01 | -33.71430 | 17.80633 | 20954 ft | 426 kts | 322° |
| 2026-05-05 14:01 | -33.69050 | 17.78454 | 21335 ft | 430 kts | 322° |
| 2026-05-05 14:01 | -33.66662 | 17.76269 | 21720 ft | 433 kts | 322° |
| 2026-05-05 14:02 | -33.64255 | 17.74068 | 22076 ft | 436 kts | 322° |
| 2026-05-05 14:02 | -33.61826 | 17.71849 | 22448 ft | 439 kts | 322° |
| 2026-05-05 14:02 | -33.59383 | 17.69620 | 22800 ft | 442 kts | 322° |
| 2026-05-05 14:02 | -33.56950 | 17.67403 | 23144 ft | 445 kts | 322° |
| 2026-05-05 14:03 | -33.54484 | 17.65156 | 23485 ft | 447 kts | 322° |
| 2026-05-05 14:03 | -33.51996 | 17.62893 | 23815 ft | 450 kts | 322° |
| 2026-05-05 14:03 | -33.49497 | 17.60618 | 24124 ft | 452 kts | 321° |
| 2026-05-05 14:03 | -33.47058 | 17.58216 | 24438 ft | 453 kts | 314° |
| 2026-05-05 14:04 | -33.44943 | 17.55418 | 24741 ft | 453 kts | 305° |
| 2026-05-05 14:04 | -33.43161 | 17.52296 | 25046 ft | 454 kts | 300° |
| 2026-05-05 14:04 | -33.41448 | 17.49162 | 25341 ft | 456 kts | 301° |
| 2026-05-05 14:04 | -33.39703 | 17.45976 | 25638 ft | 457 kts | 301° |
| 2026-05-05 14:05 | -33.37948 | 17.42780 | 25937 ft | 459 kts | 301° |
| 2026-05-05 14:05 | -33.36188 | 17.39579 | 26228 ft | 461 kts | 301° |
| 2026-05-05 14:05 | -33.34422 | 17.36367 | 26521 ft | 463 kts | 301° |
| 2026-05-05 14:05 | -33.32643 | 17.33137 | 26809 ft | 465 kts | 300° |
| 2026-05-05 14:06 | -33.30884 | 17.29948 | 27103 ft | 466 kts | 300° |
| 2026-05-05 14:06 | -33.29098 | 17.26711 | 27495 ft | 465 kts | 300° |
| 2026-05-05 14:06 | -33.27317 | 17.23488 | 27877 ft | 464 kts | 300° |
| 2026-05-05 14:06 | -33.25528 | 17.20259 | 28251 ft | 464 kts | 300° |
| 2026-05-05 14:07 | -33.23745 | 17.17043 | 28627 ft | 463 kts | 300° |
| 2026-05-05 14:07 | -33.21967 | 17.13834 | 28981 ft | 463 kts | 300° |
| 2026-05-05 14:07 | -33.20213 | 17.10664 | 29329 ft | 462 kts | 300° |
| 2026-05-05 14:07 | -33.18433 | 17.07459 | 29680 ft | 462 kts | 300° |
| 2026-05-05 14:08 | -33.16651 | 17.04257 | 30029 ft | 462 kts | 300° |
| 2026-05-05 14:08 | -33.14875 | 17.01067 | 30388 ft | 461 kts | 300° |
| 2026-05-05 14:08 | -33.13101 | 16.97881 | 30713 ft | 461 kts | 300° |
| 2026-05-05 14:08 | -33.11324 | 16.94690 | 31042 ft | 461 kts | 300° |
| 2026-05-05 14:09 | -33.09551 | 16.91510 | 31379 ft | 460 kts | 300° |
| 2026-05-05 14:09 | -33.07776 | 16.88328 | 31711 ft | 460 kts | 300° |
| 2026-05-05 14:09 | -33.06023 | 16.85191 | 32024 ft | 459 kts | 299° |
| 2026-05-05 14:09 | -33.04248 | 16.82014 | 32328 ft | 459 kts | 299° |
| 2026-05-05 14:10 | -33.02478 | 16.78844 | 32652 ft | 459 kts | 299° |
| 2026-05-05 14:10 | -33.00703 | 16.75672 | 32969 ft | 459 kts | 299° |
| 2026-05-05 14:10 | -32.98931 | 16.72503 | 33292 ft | 458 kts | 299° |
| 2026-05-05 14:10 | -32.97183 | 16.69380 | 33593 ft | 458 kts | 299° |
| 2026-05-05 14:11 | -32.95411 | 16.66221 | 33880 ft | 458 kts | 299° |
| 2026-05-05 14:11 | -32.93634 | 16.63060 | 34002 ft | 459 kts | 299° |
| 2026-05-05 14:11 | -32.90022 | 16.56634 | 34022 ft | 472 kts | 299° |
| 2026-05-05 14:12 | -32.86358 | 16.50123 | 34021 ft | 478 kts | 299° |